createdAt,value
2019-06-01T00:02:58.160Z,18.60
2019-06-01T00:08:06.851Z,18.60
2019-06-01T00:13:15.565Z,18.60
2019-06-01T00:18:24.363Z,18.60
2019-06-01T00:23:33.261Z,18.60
2019-06-01T00:28:42.088Z,18.50
2019-06-01T00:33:51.714Z,18.50
2019-06-01T00:38:59.672Z,18.50
2019-06-01T00:44:08.397Z,18.40
2019-06-01T00:49:17.179Z,18.40
2019-06-01T00:54:26.129Z,18.40
2019-06-01T00:59:35.119Z,18.40
2019-06-01T01:04:44.265Z,18.30
2019-06-01T01:09:52.895Z,18.30
2019-06-01T01:15:01.378Z,18.30
2019-06-01T01:20:10.241Z,18.20
2019-06-01T01:25:19.003Z,18.20
2019-06-01T01:30:27.952Z,18.20
2019-06-01T01:35:36.780Z,18.10
2019-06-01T01:40:45.554Z,18.00
2019-06-01T01:45:54.834Z,18.00
2019-06-01T01:51:03.166Z,17.90
2019-06-01T01:56:12.035Z,17.90
2019-06-01T02:01:23.042Z,17.80
2019-06-01T02:06:29.635Z,17.70
2019-06-01T02:11:38.410Z,17.70
2019-06-01T02:16:47.206Z,17.70
2019-06-01T02:21:56.467Z,17.60
2019-06-01T02:27:04.720Z,17.50
2019-06-01T02:32:13.536Z,17.50
2019-06-01T02:37:22.595Z,17.50
2019-06-01T02:42:31.333Z,17.50
2019-06-01T02:47:40.175Z,17.50
2019-06-01T02:52:49.125Z,17.40
2019-06-01T02:57:58.086Z,17.40
2019-06-01T03:03:06.969Z,17.30
2019-06-01T03:08:15.737Z,17.10
2019-06-01T03:13:24.570Z,17.10
2019-06-01T03:18:33.378Z,17.10
2019-06-01T03:23:42.944Z,17.10
2019-06-01T03:28:51.949Z,17.20
2019-06-01T03:34:01.498Z,17.10
2019-06-01T03:39:09.658Z,17.10
2019-06-01T03:44:18.693Z,17.00
2019-06-01T03:49:27.306Z,17.00
2019-06-01T03:54:36.205Z,17.00
2019-06-01T03:59:45.070Z,17.00
2019-06-01T04:04:53.950Z,17.00
2019-06-01T04:10:03.891Z,17.10
2019-06-01T04:15:16.225Z,17.10
2019-06-01T04:20:20.319Z,17.10
2019-06-01T04:25:31.976Z,17.10
2019-06-01T04:30:40.934Z,17.10
2019-06-01T04:35:49.712Z,17.10
2019-06-01T04:40:58.615Z,17.20
2019-06-01T04:46:08.186Z,17.30
2019-06-01T04:51:16.265Z,17.30
2019-06-01T04:56:25.001Z,17.40
2019-06-01T05:01:33.901Z,17.40
2019-06-01T05:06:42.770Z,17.40
2019-06-01T05:11:51.654Z,17.30
2019-06-01T05:17:00.453Z,17.30
2019-06-01T05:22:10.425Z,17.40
2019-06-01T05:27:18.195Z,17.50
2019-06-01T05:32:27.169Z,17.60
2019-06-01T05:37:36.068Z,17.70
2019-06-01T05:42:44.638Z,17.70
2019-06-01T05:47:53.391Z,17.90
2019-06-01T05:53:02.252Z,17.90
2019-06-01T05:58:10.978Z,17.70
2019-06-01T06:03:22.327Z,17.50
2019-06-01T06:08:28.585Z,17.60
2019-06-01T06:13:37.333Z,17.70
2019-06-01T06:18:46.278Z,17.60
2019-06-01T06:23:55.145Z,17.60
2019-06-01T06:29:03.927Z,17.90
2019-06-01T06:34:13.281Z,18.00
2019-06-01T06:39:22.096Z,18.20
2019-06-01T06:44:30.793Z,18.10
2019-06-01T06:49:40.905Z,18.20
2019-06-01T06:54:49.584Z,18.60
2019-06-01T06:59:58.306Z,18.80
2019-06-01T07:05:07.112Z,19.10
2019-06-01T07:10:15.915Z,19.30
2019-06-01T07:15:25.534Z,19.60
2019-06-01T07:20:33.507Z,19.60
2019-06-01T07:25:42.492Z,19.80
2019-06-01T07:30:51.431Z,19.90
2019-06-01T07:36:00.443Z,20.20
2019-06-01T07:41:09.169Z,20.50
2019-06-01T07:46:17.957Z,20.90
2019-06-01T07:51:27.421Z,21.80
2019-06-01T07:56:35.538Z,21.60
2019-06-01T08:01:44.401Z,21.90
2019-06-01T08:06:53.204Z,22.10
2019-06-01T08:12:02.022Z,22.50
2019-06-01T08:17:10.791Z,23.00
2019-06-01T08:22:19.547Z,23.00
2019-06-01T08:27:28.536Z,23.20
2019-06-01T08:32:37.317Z,23.50
2019-06-01T08:37:46.196Z,23.60
2019-06-01T08:42:55.079Z,23.70
2019-06-01T08:48:04.161Z,23.90
2019-06-01T08:53:12.893Z,24.20
2019-06-01T08:58:21.723Z,24.60
2019-06-01T09:03:31.532Z,24.80
2019-06-01T09:08:39.589Z,25.10
2019-06-01T09:13:52.119Z,25.40
2019-06-01T09:18:57.697Z,26.00
2019-06-01T09:24:06.509Z,26.10
2019-06-01T09:29:15.203Z,25.90
2019-06-01T09:34:23.963Z,26.10
2019-06-01T09:39:33.171Z,26.60
2019-06-01T09:44:46.119Z,27.00
2019-06-01T09:49:54.652Z,27.10
2019-06-01T09:55:03.946Z,27.40
2019-06-01T10:00:12.779Z,27.70
2019-06-01T10:05:21.698Z,27.50
2019-06-01T10:10:31.751Z,28.00
2019-06-01T10:15:40.180Z,28.00
2019-06-01T10:20:48.990Z,28.20
2019-06-01T10:25:58.278Z,28.80
2019-06-01T10:31:07.488Z,29.20
2019-06-01T10:36:21.014Z,29.30
2019-06-01T10:41:25.440Z,29.10
2019-06-01T10:46:35.790Z,29.10
2019-06-01T10:51:42.928Z,29.60
2019-06-01T10:56:52.030Z,30.10
2019-06-01T11:02:00.458Z,30.80
2019-06-01T11:07:09.396Z,30.70
2019-06-01T11:12:18.122Z,30.40
2019-06-01T11:17:26.987Z,30.40
2019-06-01T11:22:35.914Z,30.00
2019-06-01T11:27:44.670Z,30.60
2019-06-01T11:32:53.357Z,30.80
2019-06-01T11:38:02.224Z,30.40
2019-06-01T11:43:11.107Z,30.60
2019-06-01T11:48:19.776Z,29.80
2019-06-01T11:53:28.415Z,30.70
2019-06-01T11:58:37.301Z,31.10
2019-06-01T12:03:46.284Z,31.00
2019-06-01T12:08:54.881Z,30.60
2019-06-01T12:14:03.887Z,30.80
2019-06-01T12:19:12.578Z,31.20
2019-06-01T12:24:25.436Z,31.40
2019-06-01T12:29:30.373Z,31.10
2019-06-01T12:34:39.964Z,31.10
2019-06-01T12:39:52.263Z,31.00
2019-06-01T12:44:57.043Z,31.10
2019-06-01T12:50:05.847Z,31.00
2019-06-01T12:55:14.527Z,30.70
2019-06-01T13:00:23.568Z,30.90
2019-06-01T13:05:32.292Z,31.00
2019-06-01T13:10:41.138Z,31.10
2019-06-01T13:15:49.961Z,31.60
2019-06-01T13:20:58.588Z,31.10
2019-06-01T13:26:07.426Z,31.20
2019-06-01T13:31:16.393Z,31.40
2019-06-01T13:36:25.332Z,31.20
2019-06-01T13:41:34.131Z,30.30
2019-06-01T13:46:43.523Z,30.00
2019-06-01T13:51:52.600Z,30.20
2019-06-01T13:57:00.607Z,30.10
2019-06-01T14:02:09.646Z,30.50
2019-06-01T14:07:20.263Z,30.30
2019-06-01T14:12:29.057Z,30.60
2019-06-01T14:17:37.742Z,30.90
2019-06-01T14:22:47.636Z,30.40
2019-06-01T14:27:56.450Z,30.10
2019-06-01T14:33:04.517Z,30.00
2019-06-01T14:38:13.436Z,29.80
2019-06-01T14:43:22.319Z,30.20
2019-06-01T14:48:31.357Z,30.40
2019-06-01T14:53:40.166Z,30.20
2019-06-01T14:58:49.910Z,30.20
2019-06-01T15:03:58.401Z,30.10
2019-06-01T15:09:18.285Z,30.20
2019-06-01T15:14:17.997Z,30.40
2019-06-01T15:19:26.754Z,30.50
2019-06-01T15:24:35.884Z,30.60
2019-06-01T15:29:45.382Z,30.60
2019-06-01T15:34:54.510Z,30.50
2019-06-01T15:40:03.519Z,30.40
2019-06-01T15:45:12.434Z,29.90
2019-06-01T15:50:21.144Z,29.80
2019-06-01T15:55:29.850Z,29.70
2019-06-01T16:00:38.778Z,29.60
2019-06-01T16:05:47.502Z,29.50
2019-06-01T16:11:01.110Z,29.50
2019-06-01T16:16:05.651Z,29.60
2019-06-01T16:21:14.352Z,29.60
2019-06-01T16:26:23.219Z,29.60
2019-06-01T16:31:31.981Z,29.60
2019-06-01T16:36:40.805Z,29.50
2019-06-01T16:41:49.509Z,29.50
2019-06-01T16:46:58.176Z,29.40
2019-06-01T16:52:07.209Z,29.30
2019-06-01T16:57:15.776Z,29.10
2019-06-01T17:02:24.770Z,28.80
2019-06-01T17:07:33.507Z,28.50
2019-06-01T17:12:43.772Z,28.50
2019-06-01T17:17:51.281Z,28.70
2019-06-01T17:23:01.502Z,28.60
2019-06-01T17:28:09.321Z,28.50
2019-06-01T17:33:17.819Z,28.50
2019-06-01T17:38:26.587Z,28.40
2019-06-01T17:43:35.457Z,28.00
2019-06-01T17:48:44.295Z,27.90
2019-06-01T17:53:53.527Z,27.80
2019-06-01T17:59:01.851Z,27.60
2019-06-01T18:04:12.026Z,27.40
2019-06-01T18:09:19.574Z,27.20
2019-06-01T18:14:28.405Z,27.20
2019-06-01T18:19:37.211Z,27.10
2019-06-01T18:24:45.876Z,27.20
2019-06-01T18:29:54.721Z,27.10
2019-06-01T18:35:04.939Z,27.00
2019-06-01T18:40:13.953Z,26.90
2019-06-01T18:45:21.913Z,26.80
2019-06-01T18:50:30.737Z,26.70
2019-06-01T18:55:39.636Z,26.60
2019-06-01T19:00:48.529Z,26.50
2019-06-01T19:05:57.404Z,26.30
2019-06-01T19:11:06.314Z,26.10
2019-06-01T19:16:16.155Z,25.80
2019-06-01T19:21:23.922Z,25.80
2019-06-01T19:26:32.730Z,25.80
2019-06-01T19:31:41.696Z,25.60
2019-06-01T19:36:50.794Z,25.50
2019-06-01T19:41:59.513Z,25.40
2019-06-01T19:47:08.195Z,25.30
2019-06-01T19:52:17.167Z,25.20
2019-06-01T19:57:25.960Z,25.10
2019-06-01T20:02:34.896Z,24.90
2019-06-01T20:07:43.738Z,24.80
2019-06-01T20:12:52.653Z,24.70
2019-06-01T20:18:02.366Z,24.60
2019-06-01T20:23:11.460Z,25.00
2019-06-01T20:28:20.252Z,24.40
2019-06-01T20:33:29.048Z,24.30
2019-06-01T20:38:37.855Z,24.30
2019-06-01T20:43:46.771Z,24.20
2019-06-01T20:48:55.827Z,24.10
2019-06-01T20:54:04.698Z,24.00
2019-06-01T20:59:16.652Z,23.90
2019-06-01T21:04:22.482Z,23.10
2019-06-01T21:09:31.194Z,23.10
2019-06-01T21:14:41.132Z,23.20
2019-06-01T21:19:49.253Z,23.30
2019-06-01T21:24:58.003Z,23.40
2019-06-01T21:30:06.814Z,23.40
2019-06-01T21:35:15.642Z,23.30
2019-06-01T21:40:25.648Z,23.20
2019-06-01T21:45:33.185Z,22.80
2019-06-01T21:50:41.939Z,22.90
2019-06-01T21:55:50.657Z,22.90
2019-06-01T22:00:59.533Z,22.70
2019-06-01T22:06:08.262Z,22.70
2019-06-01T22:11:17.362Z,22.80
2019-06-01T22:16:25.952Z,22.60
2019-06-01T22:21:34.745Z,22.50
2019-06-01T22:26:43.426Z,22.70
2019-06-01T22:31:52.306Z,22.70
2019-06-01T22:37:01.119Z,22.70
2019-06-01T22:42:09.907Z,22.60
2019-06-01T22:47:18.816Z,22.50
2019-06-01T22:52:28.817Z,22.40
2019-06-01T22:57:36.514Z,22.40
2019-06-01T23:02:45.373Z,22.30
2019-06-01T23:07:54.242Z,22.30
2019-06-01T23:13:03.090Z,22.20
2019-06-01T23:18:11.912Z,22.10
2019-06-01T23:23:22.248Z,21.90
2019-06-01T23:28:30.416Z,22.00
2019-06-01T23:33:38.644Z,22.00
2019-06-01T23:38:47.414Z,21.90
2019-06-01T23:44:10.219Z,21.80
2019-06-01T23:49:05.092Z,21.70
2019-06-01T23:54:13.742Z,21.70
2019-06-01T23:59:23.941Z,21.80
